Time;durP1;ratioP1;P1;durP2;ratioP2;P2;SDS_P1;SDS_P2;PMS_P1;PMS_P2;Temp;Humidity;BMP_temperature;BMP_pressure;BME280_temperature;BME280_humidity;BME280_pressure;Samples;Min_cycle;Max_cycle;Signal;HPM_P1;HPM_P2
2022/09/01 00:00:48;;;;;;;;;;;22.90;85.10;;;;;;5096988;28;19908;-54
2022/09/01 00:03:15;;;;;;;;;;;22.90;85.10;;;;;;5097050;28;19965;-55
2022/09/01 00:05:40;;;;;;;;;;;22.90;85.00;;;;;;5096791;28;20343;-53
2022/09/01 00:08:05;;;;;;;;;;;22.90;85.10;;;;;;5096825;28;19923;-55
2022/09/01 00:10:31;;;;;;;;;;;22.90;85.00;;;;;;5096864;28;19973;-52
2022/09/01 00:12:56;;;;;;;;;;;22.90;85.00;;;;;;5096452;28;19908;-55
2022/09/01 00:15:22;;;;;;;;;;;22.90;85.00;;;;;;5095435;28;19943;-54
2022/09/01 00:17:47;;;;;;;;;;;22.90;85.00;;;;;;5096943;28;19988;-55
2022/09/01 00:20:13;;;;;;;;;;;22.90;85.00;;;;;;5096968;28;19954;-53
2022/09/01 00:22:38;;;;;;;;;;;22.90;85.00;;;;;;5096297;28;19998;-52
2022/09/01 00:25:05;;;;;;;;;;;22.90;85.00;;;;;;5096223;28;19912;-54
2022/09/01 00:27:31;;;;;;;;;;;22.90;85.00;;;;;;5096267;28;20378;-49
2022/09/01 00:29:57;;;;;;;;;;;22.90;85.00;;;;;;5096446;28;19909;-52
2022/09/01 00:32:22;;;;;;;;;;;22.90;85.00;;;;;;5096080;28;19934;-51
2022/09/01 00:34:48;;;;;;;;;;;22.90;85.00;;;;;;5096343;28;19909;-52
2022/09/01 00:37:13;;;;;;;;;;;22.90;85.00;;;;;;5096259;28;19922;-55
2022/09/01 00:39:39;;;;;;;;;;;22.90;85.10;;;;;;5095899;28;20266;-55
2022/09/01 00:42:04;;;;;;;;;;;22.90;85.00;;;;;;5096228;28;19908;-51
2022/09/01 00:44:30;;;;;;;;;;;22.90;85.10;;;;;;5096081;28;20304;-54
2022/09/01 00:46:55;;;;;;;;;;;22.90;85.10;;;;;;5095155;28;19916;-52
2022/09/01 00:49:29;;;;;;;;;;;22.90;85.10;;;;;;5094725;28;19909;-55
2022/09/01 00:52:00;;;;;;;;;;;22.90;85.10;;;;;;5096418;28;19908;-55
2022/09/01 00:54:30;;;;;;;;;;;22.90;85.10;;;;;;5096055;28;19911;-53
2022/09/01 00:56:56;;;;;;;;;;;22.80;85.00;;;;;;5095628;28;19919;-56
2022/09/01 00:59:22;;;;;;;;;;;22.80;85.00;;;;;;5096239;28;19942;-52
2022/09/01 01:01:48;;;;;;;;;;;22.90;85.60;;;;;;5095981;28;20359;-55
2022/09/01 01:04:14;;;;;;;;;;;22.90;85.10;;;;;;5094623;28;19961;-54
2022/09/01 01:06:42;;;;;;;;;;;22.80;85.00;;;;;;5095711;28;20011;-54
2022/09/01 01:09:08;;;;;;;;;;;22.80;85.00;;;;;;5094565;28;19909;-53
2022/09/01 01:11:33;;;;;;;;;;;22.80;85.00;;;;;;5095322;28;19908;-52
2022/09/01 01:14:10;;;;;;;;;;;22.80;85.00;;;;;;5095308;28;19908;-54
2022/09/01 01:16:39;;;;;;;;;;;22.90;85.00;;;;;;5095168;28;19919;-54
2022/09/01 01:19:06;;;;;;;;;;;22.80;85.00;;;;;;5095510;28;19908;-56
2022/09/01 01:24:33;;;;;;;;;;;22.90;85.00;;;;;;5095186;28;19957;-52
2022/09/01 01:26:59;;;;;;;;;;;22.80;85.00;;;;;;5095349;28;19919;-56
2022/09/01 01:29:28;;;;;;;;;;;22.80;85.00;;;;;;5095289;28;19909;-55
2022/09/01 01:31:54;;;;;;;;;;;22.90;85.10;;;;;;5095291;28;19908;-56
2022/09/01 01:34:21;;;;;;;;;;;22.80;85.10;;;;;;5094968;28;20270;-54
2022/09/01 01:36:49;;;;;;;;;;;22.80;85.10;;;;;;5095216;28;20423;-55
2022/09/01 01:39:16;;;;;;;;;;;22.80;85.10;;;;;;5095241;28;19992;-53
2022/09/01 01:41:44;;;;;;;;;;;22.80;85.10;;;;;;5095403;28;19914;-54
2022/09/01 01:44:11;;;;;;;;;;;22.80;85.10;;;;;;5094769;28;19915;-52
2022/09/01 01:46:41;;;;;;;;;;;22.80;85.10;;;;;;5094868;28;19913;-56
2022/09/01 01:49:07;;;;;;;;;;;22.80;85.10;;;;;;5094653;28;19938;-55
2022/09/01 01:51:33;;;;;;;;;;;22.80;85.10;;;;;;5094967;28;19908;-56
2022/09/01 01:54:04;;;;;;;;;;;22.80;85.10;;;;;;5094928;28;19908;-53
2022/09/01 01:56:31;;;;;;;;;;;22.80;85.10;;;;;;5094844;28;19966;-54
2022/09/01 01:58:57;;;;;;;;;;;22.80;85.10;;;;;;5092626;28;19958;-54
2022/09/01 02:01:24;;;;;;;;;;;22.80;85.00;;;;;;5094777;28;19908;-53
2022/09/01 02:03:53;;;;;;;;;;;22.80;85.00;;;;;;5094812;28;19926;-53
2022/09/01 02:06:20;;;;;;;;;;;22.80;85.00;;;;;;5094602;28;19912;-54
2022/09/01 02:08:45;;;;;;;;;;;22.80;85.10;;;;;;5093407;28;19954;-53
2022/09/01 02:11:12;;;;;;;;;;;22.80;85.00;;;;;;5094564;28;19951;-56
2022/09/01 02:13:38;;;;;;;;;;;22.80;85.10;;;;;;5093319;28;19915;-54
2022/09/01 02:16:12;;;;;;;;;;;22.80;85.10;;;;;;5094613;28;19912;-53
2022/09/01 02:18:41;;;;;;;;;;;22.80;85.00;;;;;;5094569;28;19987;-55
2022/09/01 02:21:08;;;;;;;;;;;22.80;85.10;;;;;;5094469;28;19915;-53
2022/09/01 02:23:34;;;;;;;;;;;22.80;85.10;;;;;;5094441;28;20037;-53
2022/09/01 02:26:01;;;;;;;;;;;22.80;85.10;;;;;;5094349;28;19966;-52
2022/09/01 02:28:30;;;;;;;;;;;22.80;85.10;;;;;;5094275;28;19916;-53
2022/09/01 02:30:58;;;;;;;;;;;22.80;85.10;;;;;;5093216;28;19912;-55
2022/09/01 02:33:25;;;;;;;;;;;22.80;85.10;;;;;;5094374;28;19993;-52
2022/09/01 02:35:52;;;;;;;;;;;22.80;85.00;;;;;;5094330;28;19915;-53
2022/09/01 02:38:19;;;;;;;;;;;22.80;85.00;;;;;;5093025;28;20270;-55
2022/09/01 02:40:45;;;;;;;;;;;22.80;85.00;;;;;;5092719;28;19951;-50
2022/09/01 02:43:12;;;;;;;;;;;22.80;85.00;;;;;;5094527;28;20240;-55
2022/09/01 02:45:38;;;;;;;;;;;22.80;85.00;;;;;;5094180;28;19919;-56
2022/09/01 02:48:08;;;;;;;;;;;22.70;85.00;;;;;;5094241;28;19912;-55
2022/09/01 02:50:34;;;;;;;;;;;22.80;85.10;;;;;;5094458;28;19912;-54
2022/09/01 02:53:00;;;;;;;;;;;22.70;85.10;;;;;;5093871;28;19915;-51
2022/09/01 02:55:26;;;;;;;;;;;22.70;85.00;;;;;;5093747;28;20359;-56
2022/09/01 02:57:55;;;;;;;;;;;22.80;85.10;;;;;;5093830;28;19915;-54
2022/09/01 03:00:30;;;;;;;;;;;22.70;85.10;;;;;;5094123;28;20259;-54
2022/09/01 03:02:57;;;;;;;;;;;22.70;85.10;;;;;;5094193;28;19927;-54
2022/09/01 03:05:28;;;;;;;;;;;22.70;85.10;;;;;;5093953;28;19919;-53
2022/09/01 03:07:58;;;;;;;;;;;22.80;85.10;;;;;;5094378;28;19959;-54
2022/09/01 03:10:27;;;;;;;;;;;22.80;85.10;;;;;;5095973;28;19908;-56
2022/09/01 03:12:53;;;;;;;;;;;22.80;85.10;;;;;;5096512;28;19999;-53
2022/09/01 03:15:20;;;;;;;;;;;22.70;85.00;;;;;;5097737;28;19954;-56
2022/09/01 03:17:47;;;;;;;;;;;22.70;85.00;;;;;;5096666;28;19908;-55
2022/09/01 03:20:13;;;;;;;;;;;22.70;85.10;;;;;;5096845;28;20340;-53
2022/09/01 03:22:39;;;;;;;;;;;22.70;85.10;;;;;;5097851;28;19917;-53
2022/09/01 03:25:04;;;;;;;;;;;22.70;85.00;;;;;;5097807;28;19912;-55
2022/09/01 03:27:30;;;;;;;;;;;22.70;85.10;;;;;;5097406;28;19916;-56
2022/09/01 03:29:55;;;;;;;;;;;22.70;85.10;;;;;;5096357;28;19947;-50
2022/09/01 03:32:21;;;;;;;;;;;22.70;85.10;;;;;;5097279;28;20320;-55
2022/09/01 03:34:46;;;;;;;;;;;22.70;85.10;;;;;;5097202;28;19908;-53
2022/09/01 03:37:12;;;;;;;;;;;22.70;85.10;;;;;;5097461;28;19908;-52
2022/09/01 03:39:37;;;;;;;;;;;22.70;85.10;;;;;;5097471;28;19931;-53
2022/09/01 03:42:03;;;;;;;;;;;22.70;85.10;;;;;;5097030;28;19908;-55
2022/09/01 03:44:29;;;;;;;;;;;22.70;85.00;;;;;;5096198;28;19934;-53
2022/09/01 03:46:57;;;;;;;;;;;22.70;85.00;;;;;;5096957;28;20362;-55
2022/09/01 03:49:26;;;;;;;;;;;22.70;85.00;;;;;;5097139;28;19909;-53
2022/09/01 03:51:56;;;;;;;;;;;22.70;85.00;;;;;;5096831;28;19962;-52
2022/09/01 03:54:29;;;;;;;;;;;22.70;85.00;;;;;;5096732;28;19991;-51
2022/09/01 03:56:56;;;;;;;;;;;22.70;85.10;;;;;;5095778;28;20347;-53
2022/09/01 03:59:21;;;;;;;;;;;22.70;85.10;;;;;;5097057;28;19908;-53
2022/09/01 04:01:47;;;;;;;;;;;22.70;85.10;;;;;;5095508;28;19915;-52
2022/09/01 04:04:12;;;;;;;;;;;22.70;85.00;;;;;;5096854;28;20358;-51
2022/09/01 04:06:39;;;;;;;;;;;22.70;85.00;;;;;;5095480;28;19938;-49
2022/09/01 04:09:04;;;;;;;;;;;22.70;85.00;;;;;;5095620;28;19919;-53
2022/09/01 04:11:31;;;;;;;;;;;22.70;85.00;;;;;;5097188;28;19912;-56
2022/09/01 04:13:57;;;;;;;;;;;22.70;85.00;;;;;;5096716;28;20355;-52
2022/09/01 04:19:24;;;;;;;;;;;22.70;85.10;;;;;;5087535;28;19947;-52
2022/09/01 04:21:50;;;;;;;;;;;22.70;85.10;;;;;;5094362;28;20278;-55
2022/09/01 04:24:17;;;;;;;;;;;22.70;85.10;;;;;;5096445;28;20251;-54
2022/09/01 04:26:46;;;;;;;;;;;22.70;85.10;;;;;;5096429;28;20355;-53
2022/09/01 04:29:12;;;;;;;;;;;22.70;85.10;;;;;;5095258;28;20003;-55
2022/09/01 04:31:39;;;;;;;;;;;22.70;85.10;;;;;;5095000;28;19991;-53
2022/09/01 04:34:12;;;;;;;;;;;22.70;85.00;;;;;;5096218;28;20375;-52
2022/09/01 04:36:42;;;;;;;;;;;22.70;85.10;;;;;;5095074;28;20327;-52
2022/09/01 04:39:08;;;;;;;;;;;22.70;85.10;;;;;;5095729;28;19931;-55
2022/09/01 04:41:36;;;;;;;;;;;22.70;85.10;;;;;;5096051;28;20343;-55
2022/09/01 04:44:03;;;;;;;;;;;22.70;85.10;;;;;;5095874;28;19912;-53
2022/09/01 04:46:31;;;;;;;;;;;22.60;85.10;;;;;;5095758;28;19966;-54
2022/09/01 04:48:58;;;;;;;;;;;22.70;85.10;;;;;;5094980;28;20351;-54
2022/09/01 04:51:26;;;;;;;;;;;22.70;85.10;;;;;;5095939;28;19908;-51
2022/09/01 04:53:53;;;;;;;;;;;22.60;85.10;;;;;;5095855;28;20002;-54
2022/09/01 04:56:21;;;;;;;;;;;22.70;85.10;;;;;;5094333;28;19909;-51
2022/09/01 04:58:48;;;;;;;;;;;22.70;85.20;;;;;;5094298;28;19909;-54
2022/09/01 05:01:18;;;;;;;;;;;22.60;85.00;;;;;;5095314;28;19955;-56
2022/09/01 05:03:44;;;;;;;;;;;22.70;85.10;;;;;;5095727;28;19920;-52
2022/09/01 05:06:17;;;;;;;;;;;22.70;85.10;;;;;;5095487;28;19949;-54
2022/09/01 05:08:44;;;;;;;;;;;22.60;85.10;;;;;;5095421;28;19912;-53
2022/09/01 05:11:10;;;;;;;;;;;22.60;85.00;;;;;;5095453;28;19937;-53
2022/09/01 05:13:38;;;;;;;;;;;22.70;85.20;;;;;;5095427;28;19919;-55
2022/09/01 05:16:06;;;;;;;;;;;22.60;85.10;;;;;;5094873;28;19908;-49
2022/09/01 05:18:31;;;;;;;;;;;22.70;85.10;;;;;;5095202;28;19908;-52
2022/09/01 05:20:57;;;;;;;;;;;22.60;85.10;;;;;;5095191;28;20351;-51
2022/09/01 05:23:24;;;;;;;;;;;22.60;85.10;;;;;;5094857;28;19961;-55
2022/09/01 05:25:53;;;;;;;;;;;22.60;85.10;;;;;;5094733;28;19916;-53
2022/09/01 05:28:23;;;;;;;;;;;22.60;85.00;;;;;;5093334;28;19912;-52
2022/09/01 05:30:48;;;;;;;;;;;22.60;85.00;;;;;;5093483;28;19909;-51
2022/09/01 05:33:17;;;;;;;;;;;22.70;85.10;;;;;;5094524;28;19908;-52
2022/09/01 05:35:50;;;;;;;;;;;22.60;85.00;;;;;;5093624;28;19931;-52
2022/09/01 05:38:16;;;;;;;;;;;22.60;85.00;;;;;;5094877;28;20419;-51
2022/09/01 05:40:42;;;;;;;;;;;22.70;85.10;;;;;;5094792;28;19909;-52
2022/09/01 05:43:11;;;;;;;;;;;22.70;85.00;;;;;;5094641;28;19970;-51
2022/09/01 05:45:43;;;;;;;;;;;22.70;85.00;;;;;;5093298;28;19969;-51
2022/09/01 05:48:12;;;;;;;;;;;22.70;85.00;;;;;;5094343;28;20328;-54
2022/09/01 05:50:44;;;;;;;;;;;22.70;85.00;;;;;;5094096;28;20362;-51
2022/09/01 05:53:14;;;;;;;;;;;22.70;85.00;;;;;;5094478;28;20275;-53
2022/09/01 05:55:42;;;;;;;;;;;22.60;85.00;;;;;;5093206;28;19908;-54
2022/09/01 05:58:12;;;;;;;;;;;22.70;85.00;;;;;;5094434;28;19908;-53
2022/09/01 06:00:39;;;;;;;;;;;22.70;85.00;;;;;;5094677;28;19908;-55
2022/09/01 06:03:05;;;;;;;;;;;22.70;85.00;;;;;;5093877;28;20367;-55
2022/09/01 06:05:34;;;;;;;;;;;22.60;85.00;;;;;;5094271;28;19960;-55
2022/09/01 06:07:59;;;;;;;;;;;22.60;85.00;;;;;;5094326;28;19912;-56
2022/09/01 06:10:25;;;;;;;;;;;22.60;85.00;;;;;;5092978;28;20242;-53
2022/09/01 06:12:52;;;;;;;;;;;22.60;85.00;;;;;;5093890;28;19908;-54
2022/09/01 06:15:19;;;;;;;;;;;22.60;85.00;;;;;;5093571;28;19908;-56
2022/09/01 06:17:45;;;;;;;;;;;22.60;85.00;;;;;;5094015;28;19916;-54
2022/09/01 06:20:11;;;;;;;;;;;22.60;85.00;;;;;;5094129;28;19916;-55
2022/09/01 06:22:37;;;;;;;;;;;22.70;85.00;;;;;;5093829;28;19908;-55
2022/09/01 06:25:05;;;;;;;;;;;22.60;84.90;;;;;;5093981;28;19912;-55
2022/09/01 06:27:37;;;;;;;;;;;22.70;84.90;;;;;;5093746;28;19919;-56
2022/09/01 06:30:13;;;;;;;;;;;22.60;84.90;;;;;;5094045;28;19908;-54
2022/09/01 06:32:42;;;;;;;;;;;22.70;84.80;;;;;;5094277;28;20004;-52
2022/09/01 06:35:14;;;;;;;;;;;22.70;84.80;;;;;;5092719;28;19908;-54
2022/09/01 06:37:42;;;;;;;;;;;22.70;84.90;;;;;;5092638;28;19908;-54
2022/09/01 06:40:15;;;;;;;;;;;22.70;84.90;;;;;;5093674;28;20359;-56
2022/09/01 06:42:46;;;;;;;;;;;22.70;84.90;;;;;;5093787;28;20002;-54
2022/09/01 06:45:13;;;;;;;;;;;22.70;84.80;;;;;;5095469;28;20349;-55
2022/09/01 06:47:43;;;;;;;;;;;22.70;84.80;;;;;;5097525;28;19912;-56
2022/09/01 06:50:09;;;;;;;;;;;22.70;84.90;;;;;;5097625;28;20359;-56
2022/09/01 06:52:35;;;;;;;;;;;22.70;84.90;;;;;;5096651;28;19915;-55
2022/09/01 06:55:00;;;;;;;;;;;22.70;84.90;;;;;;5097657;28;19908;-54
2022/09/01 06:57:26;;;;;;;;;;;22.70;84.90;;;;;;5097811;28;19912;-56
2022/09/01 06:59:52;;;;;;;;;;;22.70;84.90;;;;;;5097938;28;19911;-54
2022/09/01 07:02:18;;;;;;;;;;;22.70;84.80;;;;;;5097663;28;20316;-54
2022/09/01 07:04:44;;;;;;;;;;;22.70;84.80;;;;;;5097658;28;20347;-56
2022/09/01 07:07:11;;;;;;;;;;;22.70;84.80;;;;;;5097570;28;20405;-55
2022/09/01 07:09:38;;;;;;;;;;;22.70;84.80;;;;;;5098065;28;19915;-55
2022/09/01 07:12:04;;;;;;;;;;;22.70;84.80;;;;;;5097776;28;19931;-54
2022/09/01 07:14:30;;;;;;;;;;;22.70;84.70;;;;;;5097765;28;19912;-54
2022/09/01 07:16:57;;;;;;;;;;;22.70;84.80;;;;;;5096206;28;20032;-55
2022/09/01 07:19:24;;;;;;;;;;;22.60;84.70;;;;;;5097532;28;19915;-51
2022/09/01 07:21:51;;;;;;;;;;;22.70;84.80;;;;;;5097430;28;19912;-54
2022/09/01 07:24:17;;;;;;;;;;;22.70;84.80;;;;;;5097376;28;19912;-53
2022/09/01 07:26:43;;;;;;;;;;;22.70;84.80;;;;;;5097274;28;20274;-54
2022/09/01 07:29:08;;;;;;;;;;;22.60;84.70;;;;;;5097197;28;19949;-54
2022/09/01 07:31:37;;;;;;;;;;;22.70;84.70;;;;;;5097307;28;20012;-55
2022/09/01 07:34:04;;;;;;;;;;;22.70;84.70;;;;;;5096939;28;20098;-55
2022/09/01 07:36:30;;;;;;;;;;;22.70;84.70;;;;;;5097175;28;19912;-54
2022/09/01 07:38:56;;;;;;;;;;;22.70;84.70;;;;;;5097198;28;20014;-54
2022/09/01 07:41:23;;;;;;;;;;;22.70;84.70;;;;;;5096861;28;19952;-54
2022/09/01 07:43:51;;;;;;;;;;;22.70;84.70;;;;;;5097032;28;19908;-53
2022/09/01 07:46:17;;;;;;;;;;;22.70;84.70;;;;;;5096673;28;20381;-57
2022/09/01 07:48:44;;;;;;;;;;;22.70;84.60;;;;;;5097106;28;19912;-57
2022/09/01 07:51:11;;;;;;;;;;;22.70;84.60;;;;;;5097078;28;19912;-57
2022/09/01 07:53:37;;;;;;;;;;;22.60;84.50;;;;;;5095563;28;19998;-55
2022/09/01 07:56:08;;;;;;;;;;;22.60;84.50;;;;;;5096642;28;20019;-54
2022/09/01 07:58:34;;;;;;;;;;;22.70;84.60;;;;;;5096905;28;19919;-54
2022/09/01 08:01:02;;;;;;;;;;;22.60;84.60;;;;;;5096456;28;20247;-53
2022/09/01 08:03:28;;;;;;;;;;;22.60;84.50;;;;;;5096739;28;20450;-53
2022/09/01 08:05:59;;;;;;;;;;;22.60;84.50;;;;;;5096775;28;19918;-53
2022/09/01 08:08:25;;;;;;;;;;;22.70;84.60;;;;;;5096680;28;19912;-53
2022/09/01 08:10:51;;;;;;;;;;;22.70;84.60;;;;;;5096717;28;19908;-54
2022/09/01 08:13:16;;;;;;;;;;;22.70;84.60;;;;;;5095149;28;19999;-51
2022/09/01 08:15:42;;;;;;;;;;;22.60;84.50;;;;;;5096423;28;19909;-56
2022/09/01 08:18:08;;;;;;;;;;;22.70;84.60;;;;;;5095065;28;19909;-55
2022/09/01 08:20:38;;;;;;;;;;;22.70;84.60;;;;;;5096112;28;19908;-55
2022/09/01 08:23:04;;;;;;;;;;;22.70;84.60;;;;;;5096155;28;19908;-53
2022/09/01 08:25:31;;;;;;;;;;;22.70;84.60;;;;;;5096006;28;19916;-55
2022/09/01 08:27:56;;;;;;;;;;;22.60;84.50;;;;;;5096086;28;19916;-55
2022/09/01 08:30:22;;;;;;;;;;;22.70;84.60;;;;;;5094772;28;19930;-55
2022/09/01 08:32:48;;;;;;;;;;;22.70;84.60;;;;;;5096127;28;19915;-52
2022/09/01 08:35:15;;;;;;;;;;;22.70;84.60;;;;;;5095728;28;19958;-54
2022/09/01 08:37:40;;;;;;;;;;;22.70;84.50;;;;;;5095913;28;19961;-56
2022/09/01 08:40:06;;;;;;;;;;;22.70;84.50;;;;;;5095958;28;19912;-56
2022/09/01 08:42:46;;;;;;;;;;;22.70;84.60;;;;;;5095944;28;20351;-53
2022/09/01 08:45:15;;;;;;;;;;;22.70;84.50;;;;;;5095811;28;19912;-55
2022/09/01 08:47:41;;;;;;;;;;;22.70;84.60;;;;;;5095860;28;19935;-56
2022/09/01 08:50:07;;;;;;;;;;;22.70;84.50;;;;;;5095605;28;20351;-56
2022/09/01 08:52:39;;;;;;;;;;;22.70;84.50;;;;;;5094561;28;20281;-56
2022/09/01 08:55:07;;;;;;;;;;;22.70;84.50;;;;;;5095827;28;19963;-56
2022/09/01 08:57:37;;;;;;;;;;;22.70;84.40;;;;;;5095110;28;19908;-57
2022/09/01 09:00:04;;;;;;;;;;;22.70;84.40;;;;;;5095746;28;19908;-55
2022/09/01 09:02:49;;;;;;;;;;;22.70;84.40;;;;;;5094978;28;20437;-50
2022/09/01 09:05:33;;;;;;;;;;;22.80;84.40;;;;;;5095118;28;20286;-53
2022/09/01 09:08:04;;;;;;;;;;;22.70;84.30;;;;;;5093253;28;19919;-53
2022/09/01 09:10:40;;;;;;;;;;;22.70;84.30;;;;;;5095524;28;19916;-53
2022/09/01 09:13:35;;;;;;;;;;;22.70;84.30;;;;;;5094955;28;19908;-54
2022/09/01 09:16:02;;;;;;;;;;;22.70;84.30;;;;;;5086061;28;19916;-52
2022/09/01 09:18:32;;;;;;;;;;;22.80;84.30;;;;;;5095411;28;19908;-55
2022/09/01 09:21:04;;;;;;;;;;;22.80;84.20;;;;;;5094780;28;20282;-51
2022/09/01 09:23:31;;;;;;;;;;;22.80;84.20;;;;;;5093974;28;19919;-54
2022/09/01 09:25:56;;;;;;;;;;;22.80;84.20;;;;;;5095237;28;20009;-56
2022/09/01 09:28:22;;;;;;;;;;;22.80;84.10;;;;;;5094611;28;19978;-57
2022/09/01 09:30:47;;;;;;;;;;;22.80;84.10;;;;;;5094558;28;19908;-55
2022/09/01 09:33:32;;;;;;;;;;;22.80;84.10;;;;;;5093840;28;20313;-54
2022/09/01 09:36:14;;;;;;;;;;;22.80;84.10;;;;;;5094550;28;20351;-54
2022/09/01 09:38:40;;;;;;;;;;;22.80;84.10;;;;;;5094904;28;19930;-53
2022/09/01 09:41:06;;;;;;;;;;;22.80;84.10;;;;;;5095051;28;19912;-56
2022/09/01 09:43:34;;;;;;;;;;;22.80;84.10;;;;;;5093606;28;20002;-54
2022/09/01 09:46:20;;;;;;;;;;;22.80;84.10;;;;;;5094725;28;19919;-56
2022/09/01 09:48:46;;;;;;;;;;;22.80;84.10;;;;;;5094494;28;19999;-53
2022/09/01 09:51:21;;;;;;;;;;;22.80;84.10;;;;;;5094570;28;19955;-53
2022/09/01 09:53:47;;;;;;;;;;;22.70;84.00;;;;;;5094573;28;20010;-54
2022/09/01 09:56:21;;;;;;;;;;;22.80;84.00;;;;;;5094243;28;19943;-51
2022/09/01 09:58:48;;;;;;;;;;;22.70;84.00;;;;;;5094523;28;19912;-52
2022/09/01 10:01:15;;;;;;;;;;;22.70;83.90;;;;;;5094427;28;19908;-55
2022/09/01 10:03:42;;;;;;;;;;;22.70;83.90;;;;;;5093897;28;19927;-51
2022/09/01 10:06:09;;;;;;;;;;;22.70;84.00;;;;;;5093886;28;19938;-51
2022/09/01 10:08:36;;;;;;;;;;;22.70;84.00;;;;;;5094341;28;19912;-55
2022/09/01 10:11:03;;;;;;;;;;;22.70;84.00;;;;;;5094226;28;19908;-54
2022/09/01 10:13:29;;;;;;;;;;;22.70;84.00;;;;;;5094043;28;19912;-54
2022/09/01 10:15:55;;;;;;;;;;;22.70;84.00;;;;;;5094520;28;20343;-54
2022/09/01 10:18:23;;;;;;;;;;;22.70;84.00;;;;;;5094017;28;19908;-54
2022/09/01 10:20:59;;;;;;;;;;;22.70;84.00;;;;;;5093261;28;19998;-54
2022/09/01 10:23:26;;;;;;;;;;;22.70;83.90;;;;;;5093694;28;19947;-50
2022/09/01 10:25:55;;;;;;;;;;;22.70;83.90;;;;;;5093606;28;19912;-52
2022/09/01 10:28:24;;;;;;;;;;;22.70;83.90;;;;;;5093702;28;19912;-53
2022/09/01 10:30:51;;;;;;;;;;;22.70;83.90;;;;;;5094196;28;19985;-53
2022/09/01 10:33:18;;;;;;;;;;;22.70;83.80;;;;;;5093934;28;19912;-52
2022/09/01 10:35:45;;;;;;;;;;;22.70;83.80;;;;;;5093904;28;19914;-54
2022/09/01 10:38:22;;;;;;;;;;;22.70;83.80;;;;;;5093738;28;19916;-56
2022/09/01 10:41:05;;;;;;;;;;;22.70;83.70;;;;;;5093581;28;19908;-56
2022/09/01 10:43:43;;;;;;;;;;;22.70;83.70;;;;;;5094129;28;19944;-54
2022/09/01 10:46:18;;;;;;;;;;;22.70;83.80;;;;;;5093781;28;19919;-54
2022/09/01 10:48:44;;;;;;;;;;;22.80;83.80;;;;;;5094231;28;19935;-54
2022/09/01 10:51:12;;;;;;;;;;;22.80;83.80;;;;;;5094324;28;20338;-55
2022/09/01 10:53:43;;;;;;;;;;;22.80;83.80;;;;;;5093902;28;20011;-55
2022/09/01 10:56:09;;;;;;;;;;;22.80;83.80;;;;;;5093612;28;19912;-56
2022/09/01 10:58:41;;;;;;;;;;;22.80;83.70;;;;;;5093671;28;19908;-56
2022/09/01 11:01:07;;;;;;;;;;;22.80;83.70;;;;;;5093611;28;19935;-53
2022/09/01 11:03:34;;;;;;;;;;;22.70;83.60;;;;;;5094080;28;20363;-56
2022/09/01 11:06:02;;;;;;;;;;;22.80;83.60;;;;;;5093539;28;19912;-55
2022/09/01 11:08:28;;;;;;;;;;;22.80;83.70;;;;;;5093989;28;20346;-56
2022/09/01 11:10:55;;;;;;;;;;;22.80;83.70;;;;;;5094076;28;19909;-54
2022/09/01 11:13:32;;;;;;;;;;;22.80;83.60;;;;;;5093731;28;20355;-52
2022/09/01 11:16:16;;;;;;;;;;;22.80;83.60;;;;;;5093602;28;19908;-51
2022/09/01 11:18:42;;;;;;;;;;;22.80;83.50;;;;;;5093735;28;19908;-53
2022/09/01 11:21:34;;;;;;;;;;;22.80;83.40;;;;;;5092228;28;19927;-53
2022/09/01 11:24:38;;;;;;;;;;;22.80;83.40;;;;;;5091102;28;20274;-53
2022/09/01 11:27:04;;;;;;;;;;;22.80;83.50;;;;;;5093102;28;19961;-55
2022/09/01 11:29:48;;;;;;;;;;;22.80;83.40;;;;;;5093424;28;19908;-56
2022/09/01 11:32:14;;;;;;;;;;;22.80;83.40;;;;;;5097225;28;19989;-55
2022/09/01 11:34:40;;;;;;;;;;;22.80;83.40;;;;;;5097050;28;19915;-54
2022/09/01 11:37:11;;;;;;;;;;;22.80;83.40;;;;;;5096757;28;20205;-54
2022/09/01 11:40:07;;;;;;;;;;;22.80;83.50;;;;;;5097332;28;20388;-55
2022/09/01 11:42:38;;;;;;;;;;;22.80;83.40;;;;;;5095904;28;19908;-54
2022/09/01 11:45:05;;;;;;;;;;;22.80;83.40;;;;;;5096852;28;19919;-55
2022/09/01 11:47:34;;;;;;;;;;;22.80;83.40;;;;;;5096834;28;19918;-53
2022/09/01 11:50:20;;;;;;;;;;;22.80;83.40;;;;;;5096722;28;19915;-50
2022/09/01 11:52:59;;;;;;;;;;;22.80;83.40;;;;;;5096514;28;19908;-56
2022/09/01 11:55:41;;;;;;;;;;;22.80;83.40;;;;;;5095580;28;19909;-55
2022/09/01 11:58:27;;;;;;;;;;;22.80;83.40;;;;;;5096407;28;19960;-55
2022/09/01 12:00:59;;;;;;;;;;;22.80;83.50;;;;;;5096649;28;20416;-53
2022/09/01 12:03:27;;;;;;;;;;;22.80;83.40;;;;;;5096345;28;19920;-53
2022/09/01 12:05:59;;;;;;;;;;;22.80;83.40;;;;;;5096548;28;19964;-56
2022/09/01 12:08:26;;;;;;;;;;;22.90;83.50;;;;;;5096493;28;19912;-56
2022/09/01 12:11:06;;;;;;;;;;;22.80;83.50;;;;;;5096531;28;19948;-55
2022/09/01 12:13:31;;;;;;;;;;;22.80;83.50;;;;;;5096666;28;19977;-56
2022/09/01 12:15:59;;;;;;;;;;;22.80;83.50;;;;;;5096038;28;20347;-56
2022/09/01 12:18:26;;;;;;;;;;;22.80;83.50;;;;;;5095403;28;20356;-56
2022/09/01 12:20:54;;;;;;;;;;;22.80;83.60;;;;;;5096246;28;20432;-54
2022/09/01 12:23:31;;;;;;;;;;;22.80;83.50;;;;;;5095993;28;19908;-55
2022/09/01 12:25:58;;;;;;;;;;;22.80;83.60;;;;;;5095935;28;19916;-54
2022/09/01 12:28:25;;;;;;;;;;;22.90;83.70;;;;;;5096029;28;19912;-53
2022/09/01 12:30:52;;;;;;;;;;;22.90;83.60;;;;;;5094854;28;19943;-54
2022/09/01 12:33:18;;;;;;;;;;;22.80;83.50;;;;;;5094863;28;19908;-54
2022/09/01 12:35:44;;;;;;;;;;;22.80;83.50;;;;;;5095063;28;19909;-55
2022/09/01 12:38:19;;;;;;;;;;;22.80;83.50;;;;;;5094774;28;19908;-54
2022/09/01 12:40:48;;;;;;;;;;;22.80;83.70;;;;;;5095630;28;19912;-54
2022/09/01 12:43:34;;;;;;;;;;;22.90;83.50;;;;;;5094604;28;20281;-57
2022/09/01 12:46:00;;;;;;;;;;;22.80;83.40;;;;;;5094575;28;19912;-56
2022/09/01 12:48:28;;;;;;;;;;;22.80;83.40;;;;;;5094297;28;19931;-56
2022/09/01 12:50:54;;;;;;;;;;;22.80;83.40;;;;;;5094643;28;19908;-57
2022/09/01 12:53:22;;;;;;;;;;;22.90;83.50;;;;;;5095862;28;19915;-54
2022/09/01 12:56:14;;;;;;;;;;;22.80;83.40;;;;;;5095466;28;19908;-57
2022/09/01 12:58:41;;;;;;;;;;;22.80;83.40;;;;;;5090850;28;20402;-53
2022/09/01 13:01:08;;;;;;;;;;;22.90;83.50;;;;;;5095216;28;19919;-56
2022/09/01 13:03:34;;;;;;;;;;;22.80;83.90;;;;;;5095549;28;19927;-54
2022/09/01 13:06:00;;;;;;;;;;;22.80;83.80;;;;;;5095323;28;19912;-53
2022/09/01 13:08:29;;;;;;;;;;;22.80;83.30;;;;;;5095078;28;20014;-51
2022/09/01 13:11:05;;;;;;;;;;;22.80;83.30;;;;;;5095057;28;20416;-52
2022/09/01 13:13:30;;;;;;;;;;;22.90;83.40;;;;;;5093895;28;19908;-53
2022/09/01 13:16:11;;;;;;;;;;;22.90;83.40;;;;;;5094942;28;19919;-56
2022/09/01 13:18:37;;;;;;;;;;;22.80;83.30;;;;;;5094842;28;20276;-50
2022/09/01 13:21:03;;;;;;;;;;;22.80;83.30;;;;;;5095576;28;20014;-53
2022/09/01 13:23:29;;;;;;;;;;;22.80;83.40;;;;;;5095114;28;19939;-51
2022/09/01 13:25:55;;;;;;;;;;;22.90;83.40;;;;;;5094878;28;20340;-56
2022/09/01 13:28:23;;;;;;;;;;;22.90;83.30;;;;;;5095027;28;19912;-53
2022/09/01 13:30:53;;;;;;;;;;;22.80;83.30;;;;;;5093760;28;19915;-55
2022/09/01 13:33:18;;;;;;;;;;;22.90;83.40;;;;;;5095200;28;19908;-55
2022/09/01 13:35:44;;;;;;;;;;;22.80;83.30;;;;;;5094814;28;19908;-54
2022/09/01 13:38:09;;;;;;;;;;;22.90;83.30;;;;;;5094264;28;19940;-54
2022/09/01 13:40:35;;;;;;;;;;;22.90;83.40;;;;;;5094758;28;19908;-56
2022/09/01 13:43:00;;;;;;;;;;;22.90;83.30;;;;;;5094784;28;20355;-53
2022/09/01 13:45:26;;;;;;;;;;;22.90;83.30;;;;;;5094570;28;20363;-56
2022/09/01 13:47:52;;;;;;;;;;;22.90;83.20;;;;;;5093152;28;19947;-54
2022/09/01 13:50:19;;;;;;;;;;;22.80;83.10;;;;;;5094590;28;19908;-56
2022/09/01 13:52:46;;;;;;;;;;;22.80;83.10;;;;;;5094567;28;19947;-52
2022/09/01 13:55:13;;;;;;;;;;;22.80;83.10;;;;;;5094343;28;19908;-54
2022/09/01 13:57:39;;;;;;;;;;;22.80;83.10;;;;;;5094226;28;19909;-53
2022/09/01 14:00:07;;;;;;;;;;;22.80;83.20;;;;;;5094112;28;20318;-53
2022/09/01 14:02:35;;;;;;;;;;;22.80;83.20;;;;;;5094133;28;20360;-56
2022/09/01 14:05:01;;;;;;;;;;;22.80;83.20;;;;;;5093908;28;20447;-55
2022/09/01 14:07:27;;;;;;;;;;;22.80;83.20;;;;;;5094591;28;20023;-53
2022/09/01 14:09:53;;;;;;;;;;;22.80;83.70;;;;;;5093163;28;20248;-54
2022/09/01 14:12:19;;;;;;;;;;;22.80;83.10;;;;;;5092877;28;19909;-54
2022/09/01 14:14:44;;;;;;;;;;;22.80;83.10;;;;;;5093512;28;19908;-52
2022/09/01 14:17:10;;;;;;;;;;;22.80;83.10;;;;;;5094214;28;20386;-51
2022/09/01 14:19:35;;;;;;;;;;;22.80;83.00;;;;;;5093731;28;19912;-55
2022/09/01 14:22:05;;;;;;;;;;;22.80;83.10;;;;;;5092904;28;19916;-54
2022/09/01 14:24:33;;;;;;;;;;;22.80;83.00;;;;;;5094037;28;19908;-55
2022/09/01 14:26:58;;;;;;;;;;;22.80;83.00;;;;;;5093729;28;20307;-55
2022/09/01 14:29:24;;;;;;;;;;;22.80;83.00;;;;;;5093838;28;19912;-53